sensor_id;sensor_type;location;lat;lon;timestamp;temperature;humidity
77969;DHT22;67161;0.000;0.000;2023-02-03T00:01:20;16.90;51.70
77969;DHT22;67161;0.000;0.000;2023-02-03T00:03:47;16.90;51.60
77969;DHT22;67161;0.000;0.000;2023-02-03T00:06:13;16.90;51.60
77969;DHT22;67161;0.000;0.000;2023-02-03T00:08:38;16.90;51.60
77969;DHT22;67161;0.000;0.000;2023-02-03T00:11:04;16.90;51.60
77969;DHT22;67161;0.000;0.000;2023-02-03T00:13:30;16.90;51.60
77969;DHT22;67161;0.000;0.000;2023-02-03T00:15:55;16.90;51.60
77969;DHT22;67161;0.000;0.000;2023-02-03T00:18:21;16.80;51.50
77969;DHT22;67161;0.000;0.000;2023-02-03T00:20:47;16.90;51.50
77969;DHT22;67161;0.000;0.000;2023-02-03T00:23:12;16.90;51.50
77969;DHT22;67161;0.000;0.000;2023-02-03T00:25:39;16.90;51.50
77969;DHT22;67161;0.000;0.000;2023-02-03T00:28:05;16.90;51.60
77969;DHT22;67161;0.000;0.000;2023-02-03T00:30:34;16.90;51.50
77969;DHT22;67161;0.000;0.000;2023-02-03T00:33:00;16.80;51.40
77969;DHT22;67161;0.000;0.000;2023-02-03T00:35:26;16.80;51.40
77969;DHT22;67161;0.000;0.000;2023-02-03T00:37:55;16.80;51.40
77969;DHT22;67161;0.000;0.000;2023-02-03T00:40:23;16.80;51.40
77969;DHT22;67161;0.000;0.000;2023-02-03T00:42:49;16.80;51.40
77969;DHT22;67161;0.000;0.000;2023-02-03T00:45:15;16.80;51.40
77969;DHT22;67161;0.000;0.000;2023-02-03T00:47:41;16.80;52.30
77969;DHT22;67161;0.000;0.000;2023-02-03T00:50:07;16.80;51.40
77969;DHT22;67161;0.000;0.000;2023-02-03T00:52:34;16.80;51.40
77969;DHT22;67161;0.000;0.000;2023-02-03T00:55:00;16.80;51.40
77969;DHT22;67161;0.000;0.000;2023-02-03T00:57:25;16.80;51.40
77969;DHT22;67161;0.000;0.000;2023-02-03T00:59:51;16.80;51.40
77969;DHT22;67161;0.000;0.000;2023-02-03T01:02:17;16.80;51.40
77969;DHT22;67161;0.000;0.000;2023-02-03T01:04:43;16.70;51.30
77969;DHT22;67161;0.000;0.000;2023-02-03T01:07:09;16.80;51.30
77969;DHT22;67161;0.000;0.000;2023-02-03T01:09:35;16.80;51.40
77969;DHT22;67161;0.000;0.000;2023-02-03T01:12:01;16.70;51.30
77969;DHT22;67161;0.000;0.000;2023-02-03T01:14:27;16.70;51.30
77969;DHT22;67161;0.000;0.000;2023-02-03T01:16:52;16.70;51.30
77969;DHT22;67161;0.000;0.000;2023-02-03T01:19:18;16.70;51.30
77969;DHT22;67161;0.000;0.000;2023-02-03T01:21:44;16.70;51.30
77969;DHT22;67161;0.000;0.000;2023-02-03T01:24:09;16.70;51.30
77969;DHT22;67161;0.000;0.000;2023-02-03T01:26:35;16.70;51.30
77969;DHT22;67161;0.000;0.000;2023-02-03T01:29:01;16.70;51.30
77969;DHT22;67161;0.000;0.000;2023-02-03T01:31:32;16.60;51.30
77969;DHT22;67161;0.000;0.000;2023-02-03T01:34:00;16.60;51.30
77969;DHT22;67161;0.000;0.000;2023-02-03T01:36:27;16.60;51.30
77969;DHT22;67161;0.000;0.000;2023-02-03T01:38:53;16.60;51.40
77969;DHT22;67161;0.000;0.000;2023-02-03T01:41:21;16.60;51.40
77969;DHT22;67161;0.000;0.000;2023-02-03T01:43:49;16.60;51.40
77969;DHT22;67161;0.000;0.000;2023-02-03T01:46:51;16.50;51.30
77969;DHT22;67161;0.000;0.000;2023-02-03T01:49:21;16.50;51.40
77969;DHT22;67161;0.000;0.000;2023-02-03T01:51:49;16.50;51.40
77969;DHT22;67161;0.000;0.000;2023-02-03T01:54:21;16.40;51.40
77969;DHT22;67161;0.000;0.000;2023-02-03T01:57:02;16.50;51.50
77969;DHT22;67161;0.000;0.000;2023-02-03T01:59:30;16.40;51.40
77969;DHT22;67161;0.000;0.000;2023-02-03T02:01:57;16.40;51.40
77969;DHT22;67161;0.000;0.000;2023-02-03T02:04:27;16.40;51.50
77969;DHT22;67161;0.000;0.000;2023-02-03T02:06:56;16.40;51.50
77969;DHT22;67161;0.000;0.000;2023-02-03T02:09:23;16.40;51.50
77969;DHT22;67161;0.000;0.000;2023-02-03T02:11:49;16.40;51.50
77969;DHT22;67161;0.000;0.000;2023-02-03T02:14:15;16.40;51.60
77969;DHT22;67161;0.000;0.000;2023-02-03T02:16:52;16.30;51.50
77969;DHT22;67161;0.000;0.000;2023-02-03T02:22:47;16.30;51.60
77969;DHT22;67161;0.000;0.000;2023-02-03T02:33:50;16.20;51.70
77969;DHT22;67161;0.000;0.000;2023-02-03T02:44:29;16.10;51.70
77969;DHT22;67161;0.000;0.000;2023-02-03T02:47:01;16.10;51.80
77969;DHT22;67161;0.000;0.000;2023-02-03T02:49:47;16.00;51.80
77969;DHT22;67161;0.000;0.000;2023-02-03T02:52:17;16.00;51.80
77969;DHT22;67161;0.000;0.000;2023-02-03T02:54:47;16.00;51.90
77969;DHT22;67161;0.000;0.000;2023-02-03T02:57:14;16.00;51.80
77969;DHT22;67161;0.000;0.000;2023-02-03T02:59:43;16.00;51.90
77969;DHT22;67161;0.000;0.000;2023-02-03T03:02:10;15.90;51.90
77969;DHT22;67161;0.000;0.000;2023-02-03T03:04:36;15.90;51.90
77969;DHT22;67161;0.000;0.000;2023-02-03T03:07:12;15.90;51.90
77969;DHT22;67161;0.000;0.000;2023-02-03T03:09:48;15.90;52.00
77969;DHT22;67161;0.000;0.000;2023-02-03T03:12:45;15.90;52.00
77969;DHT22;67161;0.000;0.000;2023-02-03T03:15:18;15.80;51.90
77969;DHT22;67161;0.000;0.000;2023-02-03T03:17:56;15.80;52.00
77969;DHT22;67161;0.000;0.000;2023-02-03T03:20:25;15.80;52.10
77969;DHT22;67161;0.000;0.000;2023-02-03T03:23:06;15.80;52.10
77969;DHT22;67161;0.000;0.000;2023-02-03T03:25:45;15.80;52.10
77969;DHT22;67161;0.000;0.000;2023-02-03T03:28:16;15.70;52.10
77969;DHT22;67161;0.000;0.000;2023-02-03T03:30:45;15.70;52.10
77969;DHT22;67161;0.000;0.000;2023-02-03T03:33:11;15.70;52.10
77969;DHT22;67161;0.000;0.000;2023-02-03T03:36:00;15.70;52.20
77969;DHT22;67161;0.000;0.000;2023-02-03T03:41:39;15.60;52.20
77969;DHT22;67161;0.000;0.000;2023-02-03T03:44:10;15.60;52.30
77969;DHT22;67161;0.000;0.000;2023-02-03T03:46:49;15.60;52.30
77969;DHT22;67161;0.000;0.000;2023-02-03T03:49:17;15.60;52.30
77969;DHT22;67161;0.000;0.000;2023-02-03T03:52:01;15.50;52.40
77969;DHT22;67161;0.000;0.000;2023-02-03T03:54:30;15.50;52.40
77969;DHT22;67161;0.000;0.000;2023-02-03T03:59:28;15.50;52.40
77969;DHT22;67161;0.000;0.000;2023-02-03T04:01:56;15.50;52.50
77969;DHT22;67161;0.000;0.000;2023-02-03T04:04:24;15.50;52.60
77969;DHT22;67161;0.000;0.000;2023-02-03T04:06:52;15.50;52.60
77969;DHT22;67161;0.000;0.000;2023-02-03T04:09:18;15.40;52.60
77969;DHT22;67161;0.000;0.000;2023-02-03T04:11:43;15.40;52.60
77969;DHT22;67161;0.000;0.000;2023-02-03T04:14:32;15.40;52.60
77969;DHT22;67161;0.000;0.000;2023-02-03T04:16:58;15.40;52.80
77969;DHT22;67161;0.000;0.000;2023-02-03T04:19:24;15.40;52.70
77969;DHT22;67161;0.000;0.000;2023-02-03T04:21:50;15.40;53.70
77969;DHT22;67161;0.000;0.000;2023-02-03T04:24:16;15.30;52.70
77969;DHT22;67161;0.000;0.000;2023-02-03T04:26:42;15.30;52.80
77969;DHT22;67161;0.000;0.000;2023-02-03T04:29:08;15.30;52.80
77969;DHT22;67161;0.000;0.000;2023-02-03T04:31:33;15.30;52.80
77969;DHT22;67161;0.000;0.000;2023-02-03T04:33:59;15.30;52.80
77969;DHT22;67161;0.000;0.000;2023-02-03T04:36:25;15.20;52.80
77969;DHT22;67161;0.000;0.000;2023-02-03T04:38:50;15.20;52.80
77969;DHT22;67161;0.000;0.000;2023-02-03T04:41:16;15.20;52.90
77969;DHT22;67161;0.000;0.000;2023-02-03T04:43:42;15.20;52.90
77969;DHT22;67161;0.000;0.000;2023-02-03T04:46:08;15.20;53.00
77969;DHT22;67161;0.000;0.000;2023-02-03T04:48:35;15.20;53.00
77969;DHT22;67161;0.000;0.000;2023-02-03T04:51:06;15.20;53.10
77969;DHT22;67161;0.000;0.000;2023-02-03T04:53:32;15.20;53.10
77969;DHT22;67161;0.000;0.000;2023-02-03T04:55:58;15.10;53.10
77969;DHT22;67161;0.000;0.000;2023-02-03T04:58:24;15.10;53.10
77969;DHT22;67161;0.000;0.000;2023-02-03T05:00:51;15.10;53.10
77969;DHT22;67161;0.000;0.000;2023-02-03T05:03:17;15.10;53.20
77969;DHT22;67161;0.000;0.000;2023-02-03T05:05:42;15.10;53.20
77969;DHT22;67161;0.000;0.000;2023-02-03T05:08:08;15.10;54.10
77969;DHT22;67161;0.000;0.000;2023-02-03T05:10:34;15.10;53.30
77969;DHT22;67161;0.000;0.000;2023-02-03T05:12:59;15.00;53.20
77969;DHT22;67161;0.000;0.000;2023-02-03T05:15:25;15.00;53.30
77969;DHT22;67161;0.000;0.000;2023-02-03T05:17:51;15.00;53.30
77969;DHT22;67161;0.000;0.000;2023-02-03T05:20:17;15.00;53.30
77969;DHT22;67161;0.000;0.000;2023-02-03T05:22:43;15.00;53.30
77969;DHT22;67161;0.000;0.000;2023-02-03T05:25:09;15.00;53.40
77969;DHT22;67161;0.000;0.000;2023-02-03T05:27:37;15.00;53.40
77969;DHT22;67161;0.000;0.000;2023-02-03T05:30:02;14.90;53.40
77969;DHT22;67161;0.000;0.000;2023-02-03T05:32:28;14.90;53.40
77969;DHT22;67161;0.000;0.000;2023-02-03T05:34:53;14.90;53.50
77969;DHT22;67161;0.000;0.000;2023-02-03T05:37:19;14.90;53.50
77969;DHT22;67161;0.000;0.000;2023-02-03T05:39:45;14.90;53.50
77969;DHT22;67161;0.000;0.000;2023-02-03T05:42:10;14.90;53.50
77969;DHT22;67161;0.000;0.000;2023-02-03T05:44:36;14.90;53.50
77969;DHT22;67161;0.000;0.000;2023-02-03T05:47:01;14.90;53.50
77969;DHT22;67161;0.000;0.000;2023-02-03T05:49:27;14.90;53.60
77969;DHT22;67161;0.000;0.000;2023-02-03T05:51:53;14.90;53.60
77969;DHT22;67161;0.000;0.000;2023-02-03T05:54:19;14.80;53.60
77969;DHT22;67161;0.000;0.000;2023-02-03T05:56:45;14.80;53.60
77969;DHT22;67161;0.000;0.000;2023-02-03T05:59:11;14.80;53.70
77969;DHT22;67161;0.000;0.000;2023-02-03T06:01:36;14.80;53.70
77969;DHT22;67161;0.000;0.000;2023-02-03T06:04:02;14.80;53.70
77969;DHT22;67161;0.000;0.000;2023-02-03T06:06:29;14.80;53.70
77969;DHT22;67161;0.000;0.000;2023-02-03T06:09:08;14.80;53.70
77969;DHT22;67161;0.000;0.000;2023-02-03T06:11:34;14.80;53.80
77969;DHT22;67161;0.000;0.000;2023-02-03T06:14:00;14.80;53.80
77969;DHT22;67161;0.000;0.000;2023-02-03T06:16:27;14.70;53.80
77969;DHT22;67161;0.000;0.000;2023-02-03T06:18:54;14.70;53.80
77969;DHT22;67161;0.000;0.000;2023-02-03T06:21:23;14.80;53.90
77969;DHT22;67161;0.000;0.000;2023-02-03T06:23:49;14.70;53.80
77969;DHT22;67161;0.000;0.000;2023-02-03T06:26:14;14.70;53.90
77969;DHT22;67161;0.000;0.000;2023-02-03T06:28:40;14.70;53.90
77969;DHT22;67161;0.000;0.000;2023-02-03T06:31:06;14.70;53.90
77969;DHT22;67161;0.000;0.000;2023-02-03T06:33:32;14.70;53.90
77969;DHT22;67161;0.000;0.000;2023-02-03T06:35:58;14.70;53.90
77969;DHT22;67161;0.000;0.000;2023-02-03T06:38:24;14.70;54.00
77969;DHT22;67161;0.000;0.000;2023-02-03T06:40:49;14.70;54.10
77969;DHT22;67161;0.000;0.000;2023-02-03T06:43:16;14.70;54.00
77969;DHT22;67161;0.000;0.000;2023-02-03T06:45:45;14.70;55.00
77969;DHT22;67161;0.000;0.000;2023-02-03T06:48:11;14.70;54.00
77969;DHT22;67161;0.000;0.000;2023-02-03T06:50:37;14.70;54.10
77969;DHT22;67161;0.000;0.000;2023-02-03T06:53:03;14.70;54.00
77969;DHT22;67161;0.000;0.000;2023-02-03T06:55:28;14.70;54.00
77969;DHT22;67161;0.000;0.000;2023-02-03T06:57:54;14.70;54.10
77969;DHT22;67161;0.000;0.000;2023-02-03T07:00:20;14.70;54.10
77969;DHT22;67161;0.000;0.000;2023-02-03T07:02:53;14.70;54.10
77969;DHT22;67161;0.000;0.000;2023-02-03T07:05:18;14.70;54.10
77969;DHT22;67161;0.000;0.000;2023-02-03T07:07:44;14.70;54.10
77969;DHT22;67161;0.000;0.000;2023-02-03T07:10:10;14.70;54.10
77969;DHT22;67161;0.000;0.000;2023-02-03T07:12:35;14.70;54.10
77969;DHT22;67161;0.000;0.000;2023-02-03T07:15:02;14.70;54.10
77969;DHT22;67161;0.000;0.000;2023-02-03T07:17:28;14.70;54.20
77969;DHT22;67161;0.000;0.000;2023-02-03T07:19:53;14.70;54.20
77969;DHT22;67161;0.000;0.000;2023-02-03T07:22:19;14.70;54.20
77969;DHT22;67161;0.000;0.000;2023-02-03T07:24:44;14.70;54.20
77969;DHT22;67161;0.000;0.000;2023-02-03T07:27:10;14.80;54.20
77969;DHT22;67161;0.000;0.000;2023-02-03T07:29:36;14.80;54.20
77969;DHT22;67161;0.000;0.000;2023-02-03T07:32:02;14.80;54.20
77969;DHT22;67161;0.000;0.000;2023-02-03T07:34:28;14.80;54.20
77969;DHT22;67161;0.000;0.000;2023-02-03T07:36:53;14.80;54.30
77969;DHT22;67161;0.000;0.000;2023-02-03T07:39:19;14.80;54.30
77969;DHT22;67161;0.000;0.000;2023-02-03T07:41:44;14.80;54.30
77969;DHT22;67161;0.000;0.000;2023-02-03T07:44:10;14.80;54.30
77969;DHT22;67161;0.000;0.000;2023-02-03T07:46:36;14.80;54.30
77969;DHT22;67161;0.000;0.000;2023-02-03T07:49:05;14.90;54.40
77969;DHT22;67161;0.000;0.000;2023-02-03T07:51:31;14.80;54.30
77969;DHT22;67161;0.000;0.000;2023-02-03T07:53:56;14.90;54.30
77969;DHT22;67161;0.000;0.000;2023-02-03T07:56:22;14.90;54.30
77969;DHT22;67161;0.000;0.000;2023-02-03T07:58:51;14.90;54.30
77969;DHT22;67161;0.000;0.000;2023-02-03T08:01:16;14.90;54.20
77969;DHT22;67161;0.000;0.000;2023-02-03T08:03:42;14.90;54.20
77969;DHT22;67161;0.000;0.000;2023-02-03T08:06:08;15.00;54.30
77969;DHT22;67161;0.000;0.000;2023-02-03T08:08:35;15.00;54.30
77969;DHT22;67161;0.000;0.000;2023-02-03T08:11:01;15.00;54.30
77969;DHT22;67161;0.000;0.000;2023-02-03T08:13:26;15.00;54.20
77969;DHT22;67161;0.000;0.000;2023-02-03T08:15:52;15.00;54.20
77969;DHT22;67161;0.000;0.000;2023-02-03T08:18:18;15.00;54.30
77969;DHT22;67161;0.000;0.000;2023-02-03T08:20:46;15.00;54.20
77969;DHT22;67161;0.000;0.000;2023-02-03T08:23:12;15.10;54.30
77969;DHT22;67161;0.000;0.000;2023-02-03T08:25:38;15.10;54.20
77969;DHT22;67161;0.000;0.000;2023-02-03T08:28:03;15.10;54.20
77969;DHT22;67161;0.000;0.000;2023-02-03T08:30:29;15.20;54.20
77969;DHT22;67161;0.000;0.000;2023-02-03T08:32:54;15.20;54.20
77969;DHT22;67161;0.000;0.000;2023-02-03T08:35:20;15.20;54.20
77969;DHT22;67161;0.000;0.000;2023-02-03T08:37:46;15.20;54.20
77969;DHT22;67161;0.000;0.000;2023-02-03T08:40:12;15.20;54.20
77969;DHT22;67161;0.000;0.000;2023-02-03T08:42:37;15.30;54.20
77969;DHT22;67161;0.000;0.000;2023-02-03T08:45:04;15.30;54.10
77969;DHT22;67161;0.000;0.000;2023-02-03T08:47:30;15.30;54.10
77969;DHT22;67161;0.000;0.000;2023-02-03T08:49:55;15.40;54.10
77969;DHT22;67161;0.000;0.000;2023-02-03T08:52:21;15.40;54.10
77969;DHT22;67161;0.000;0.000;2023-02-03T08:54:47;15.40;54.10
77969;DHT22;67161;0.000;0.000;2023-02-03T08:57:13;15.40;54.00
77969;DHT22;67161;0.000;0.000;2023-02-03T08:59:40;15.50;54.00
77969;DHT22;67161;0.000;0.000;2023-02-03T09:02:08;15.50;54.00
77969;DHT22;67161;0.000;0.000;2023-02-03T09:04:35;15.50;54.00
77969;DHT22;67161;0.000;0.000;2023-02-03T09:07:02;15.60;53.90
77969;DHT22;67161;0.000;0.000;2023-02-03T09:09:29;15.60;53.90
77969;DHT22;67161;0.000;0.000;2023-02-03T09:11:55;15.60;53.80
77969;DHT22;67161;0.000;0.000;2023-02-03T09:14:29;15.70;53.80
77969;DHT22;67161;0.000;0.000;2023-02-03T09:16:55;15.70;53.70
77969;DHT22;67161;0.000;0.000;2023-02-03T09:19:21;15.80;53.70
77969;DHT22;67161;0.000;0.000;2023-02-03T09:21:47;15.80;53.60
77969;DHT22;67161;0.000;0.000;2023-02-03T09:24:14;15.80;53.50
77969;DHT22;67161;0.000;0.000;2023-02-03T09:26:40;15.90;53.50
77969;DHT22;67161;0.000;0.000;2023-02-03T09:29:05;15.90;53.50
77969;DHT22;67161;0.000;0.000;2023-02-03T09:31:32;15.90;53.40
77969;DHT22;67161;0.000;0.000;2023-02-03T09:33:58;16.00;53.40
77969;DHT22;67161;0.000;0.000;2023-02-03T09:36:24;16.00;53.30
77969;DHT22;67161;0.000;0.000;2023-02-03T09:38:50;16.00;53.20
77969;DHT22;67161;0.000;0.000;2023-02-03T09:41:50;16.10;54.10
77969;DHT22;67161;0.000;0.000;2023-02-03T09:44:51;16.10;53.10
77969;DHT22;67161;0.000;0.000;2023-02-03T09:47:27;16.20;53.20
77969;DHT22;67161;0.000;0.000;2023-02-03T09:49:58;16.20;53.00
77969;DHT22;67161;0.000;0.000;2023-02-03T09:52:28;16.20;53.00
77969;DHT22;67161;0.000;0.000;2023-02-03T09:57:47;16.30;52.90
77969;DHT22;67161;0.000;0.000;2023-02-03T10:03:06;16.30;52.80
77969;DHT22;67161;0.000;0.000;2023-02-03T10:05:47;16.30;52.70
77969;DHT22;67161;0.000;0.000;2023-02-03T10:11:30;16.40;52.60
77969;DHT22;67161;0.000;0.000;2023-02-03T10:14:15;16.40;52.60
77969;DHT22;67161;0.000;0.000;2023-02-03T10:19:50;16.50;52.50
77969;DHT22;67161;0.000;0.000;2023-02-03T10:22:20;16.50;52.40
77969;DHT22;67161;0.000;0.000;2023-02-03T10:27:21;16.60;52.40
77969;DHT22;67161;0.000;0.000;2023-02-03T10:30:03;16.60;52.30
77969;DHT22;67161;0.000;0.000;2023-02-03T10:32:30;16.70;52.20
77969;DHT22;67161;0.000;0.000;2023-02-03T10:34:56;16.70;52.20
77969;DHT22;67161;0.000;0.000;2023-02-03T10:37:34;16.70;52.10
77969;DHT22;67161;0.000;0.000;2023-02-03T10:40:01;16.80;52.00
77969;DHT22;67161;0.000;0.000;2023-02-03T10:42:29;16.80;52.00
77969;DHT22;67161;0.000;0.000;2023-02-03T10:45:14;16.80;51.90
77969;DHT22;67161;0.000;0.000;2023-02-03T10:47:54;16.90;51.80
77969;DHT22;67161;0.000;0.000;2023-02-03T10:50:22;16.90;51.70
77969;DHT22;67161;0.000;0.000;2023-02-03T10:52:48;17.00;51.70
77969;DHT22;67161;0.000;0.000;2023-02-03T10:57:47;17.10;51.50
77969;DHT22;67161;0.000;0.000;2023-02-03T11:00:23;17.10;52.40
77969;DHT22;67161;0.000;0.000;2023-02-03T11:03:07;17.20;51.40
77969;DHT22;67161;0.000;0.000;2023-02-03T11:05:41;17.20;51.20
77969;DHT22;67161;0.000;0.000;2023-02-03T11:08:14;17.20;51.20
77969;DHT22;67161;0.000;0.000;2023-02-03T11:10:40;17.30;51.10
77969;DHT22;67161;0.000;0.000;2023-02-03T11:13:15;17.30;51.10
77969;DHT22;67161;0.000;0.000;2023-02-03T11:16:00;17.40;51.00
77969;DHT22;67161;0.000;0.000;2023-02-03T11:20:58;17.40;50.80
77969;DHT22;67161;0.000;0.000;2023-02-03T11:23:24;17.50;50.80
77969;DHT22;67161;0.000;0.000;2023-02-03T11:25:50;17.50;50.70
77969;DHT22;67161;0.000;0.000;2023-02-03T11:28:16;17.50;50.60
77969;DHT22;67161;0.000;0.000;2023-02-03T11:30:42;17.50;50.50
77969;DHT22;67161;0.000;0.000;2023-02-03T11:33:17;17.50;50.50
77969;DHT22;67161;0.000;0.000;2023-02-03T11:35:56;17.60;50.40
77969;DHT22;67161;0.000;0.000;2023-02-03T11:38:29;17.60;50.40
77969;DHT22;67161;0.000;0.000;2023-02-03T11:40:59;17.60;50.30
77969;DHT22;67161;0.000;0.000;2023-02-03T11:43:28;17.70;50.20
77969;DHT22;67161;0.000;0.000;2023-02-03T11:45:59;17.70;50.20
77969;DHT22;67161;0.000;0.000;2023-02-03T11:48:42;17.70;50.10
77969;DHT22;67161;0.000;0.000;2023-02-03T11:51:40;17.70;50.00
77969;DHT22;67161;0.000;0.000;2023-02-03T11:54:51;17.70;49.90
77969;DHT22;67161;0.000;0.000;2023-02-03T11:57:24;17.80;49.90
77969;DHT22;67161;0.000;0.000;2023-02-03T12:00:24;17.80;49.80
77969;DHT22;67161;0.000;0.000;2023-02-03T12:06:00;17.90;49.70
77969;DHT22;67161;0.000;0.000;2023-02-03T12:11:40;17.90;49.40
77969;DHT22;67161;0.000;0.000;2023-02-03T12:28:27;18.00;49.80
77969;DHT22;67161;0.000;0.000;2023-02-03T12:31:07;18.00;48.70
77969;DHT22;67161;0.000;0.000;2023-02-03T12:33:40;18.00;48.70
77969;DHT22;67161;0.000;0.000;2023-02-03T12:36:19;18.00;48.60
77969;DHT22;67161;0.000;0.000;2023-02-03T12:39:05;18.00;49.40
77969;DHT22;67161;0.000;0.000;2023-02-03T12:41:39;18.00;48.40
77969;DHT22;67161;0.000;0.000;2023-02-03T12:44:15;18.00;48.40
77969;DHT22;67161;0.000;0.000;2023-02-03T12:49:43;18.00;48.20
77969;DHT22;67161;0.000;0.000;2023-02-03T12:57:39;18.00;48.10
77969;DHT22;67161;0.000;0.000;2023-02-03T13:00:09;18.00;48.10
77969;DHT22;67161;0.000;0.000;2023-02-03T13:03:08;18.00;48.10
77969;DHT22;67161;0.000;0.000;2023-02-03T13:06:01;17.90;47.90
77969;DHT22;67161;0.000;0.000;2023-02-03T13:08:58;17.90;47.90
77969;DHT22;67161;0.000;0.000;2023-02-03T13:11:47;17.90;48.80
77969;DHT22;67161;0.000;0.000;2023-02-03T13:16:51;17.90;48.00
77969;DHT22;67161;0.000;0.000;2023-02-03T13:19:25;17.90;47.90
77969;DHT22;67161;0.000;0.000;2023-02-03T13:21:52;17.90;48.80
77969;DHT22;67161;0.000;0.000;2023-02-03T13:24:20;17.90;47.90
77969;DHT22;67161;0.000;0.000;2023-02-03T13:29:41;17.90;47.80
77969;DHT22;67161;0.000;0.000;2023-02-03T13:32:33;17.90;47.80
77969;DHT22;67161;0.000;0.000;2023-02-03T13:41:21;17.80;47.70
77969;DHT22;67161;0.000;0.000;2023-02-03T13:43:53;17.80;47.70
77969;DHT22;67161;0.000;0.000;2023-02-03T13:46:25;17.80;47.70
77969;DHT22;67161;0.000;0.000;2023-02-03T13:48:53;17.80;48.60
77969;DHT22;67161;0.000;0.000;2023-02-03T13:51:23;17.80;47.80
77969;DHT22;67161;0.000;0.000;2023-02-03T13:53:51;17.80;47.80
77969;DHT22;67161;0.000;0.000;2023-02-03T13:56:23;17.80;47.80
77969;DHT22;67161;0.000;0.000;2023-02-03T13:59:05;17.80;47.70
77969;DHT22;67161;0.000;0.000;2023-02-03T14:01:38;17.80;47.70
77969;DHT22;67161;0.000;0.000;2023-02-03T14:04:49;17.80;47.70
77969;DHT22;67161;0.000;0.000;2023-02-03T14:09:21;17.70;47.70
77969;DHT22;67161;0.000;0.000;2023-02-03T14:11:49;17.70;47.70
77969;DHT22;67161;0.000;0.000;2023-02-03T14:16:42;17.70;47.70
77969;DHT22;67161;0.000;0.000;2023-02-03T14:19:10;17.70;47.60
77969;DHT22;67161;0.000;0.000;2023-02-03T14:21:50;17.70;47.60
77969;DHT22;67161;0.000;0.000;2023-02-03T14:24:17;17.70;47.60
77969;DHT22;67161;0.000;0.000;2023-02-03T14:26:46;17.70;47.60
77969;DHT22;67161;0.000;0.000;2023-02-03T14:32:10;17.60;47.50
77969;DHT22;67161;0.000;0.000;2023-02-03T14:37:25;17.60;47.50
77969;DHT22;67161;0.000;0.000;2023-02-03T14:51:28;17.50;47.40
77969;DHT22;67161;0.000;0.000;2023-02-03T15:00:02;17.50;47.40
77969;DHT22;67161;0.000;0.000;2023-02-03T15:02:31;17.50;47.40
77969;DHT22;67161;0.000;0.000;2023-02-03T15:07:46;17.40;47.40
77969;DHT22;67161;0.000;0.000;2023-02-03T15:10:20;17.40;47.40
77969;DHT22;67161;0.000;0.000;2023-02-03T15:12:53;17.40;47.40
77969;DHT22;67161;0.000;0.000;2023-02-03T15:15:28;17.40;47.50
77969;DHT22;67161;0.000;0.000;2023-02-03T15:17:59;17.40;47.50
77969;DHT22;67161;0.000;0.000;2023-02-03T15:20:51;17.40;47.50
77969;DHT22;67161;0.000;0.000;2023-02-03T15:23:26;17.30;47.50
77969;DHT22;67161;0.000;0.000;2023-02-03T15:26:02;17.30;47.60
77969;DHT22;67161;0.000;0.000;2023-02-03T15:28:29;17.30;47.60
77969;DHT22;67161;0.000;0.000;2023-02-03T15:31:09;17.30;47.60
77969;DHT22;67161;0.000;0.000;2023-02-03T15:33:39;17.20;47.60
77969;DHT22;67161;0.000;0.000;2023-02-03T15:36:21;17.20;47.60
77969;DHT22;67161;0.000;0.000;2023-02-03T15:38:53;17.20;47.60
77969;DHT22;67161;0.000;0.000;2023-02-03T15:41:24;17.10;47.60
77969;DHT22;67161;0.000;0.000;2023-02-03T15:44:06;17.10;47.70
77969;DHT22;67161;0.000;0.000;2023-02-03T15:46:39;17.10;47.70
77969;DHT22;67161;0.000;0.000;2023-02-03T15:49:15;17.00;47.80
77969;DHT22;67161;0.000;0.000;2023-02-03T15:51:57;17.00;47.80
77969;DHT22;67161;0.000;0.000;2023-02-03T15:54:31;16.90;47.70
77969;DHT22;67161;0.000;0.000;2023-02-03T15:57:27;16.90;47.80
77969;DHT22;67161;0.000;0.000;2023-02-03T15:59:59;16.80;47.80
77969;DHT22;67161;0.000;0.000;2023-02-03T16:04:54;16.80;47.90
77969;DHT22;67161;0.000;0.000;2023-02-03T16:07:28;16.70;47.90
77969;DHT22;67161;0.000;0.000;2023-02-03T16:09:55;16.70;48.90
77969;DHT22;67161;0.000;0.000;2023-02-03T16:14:51;16.60;48.10
77969;DHT22;67161;0.000;0.000;2023-02-03T16:17:36;16.60;48.20
77969;DHT22;67161;0.000;0.000;2023-02-03T16:22:37;16.50;48.50
77969;DHT22;67161;0.000;0.000;2023-02-03T16:27:54;16.50;48.60
77969;DHT22;67161;0.000;0.000;2023-02-03T16:30:38;16.50;48.70
77969;DHT22;67161;0.000;0.000;2023-02-03T16:33:22;16.40;48.80
77969;DHT22;67161;0.000;0.000;2023-02-03T16:36:12;16.40;48.80
77969;DHT22;67161;0.000;0.000;2023-02-03T16:39:00;16.40;49.00
77969;DHT22;67161;0.000;0.000;2023-02-03T16:41:44;16.30;49.00
77969;DHT22;67161;0.000;0.000;2023-02-03T16:44:29;16.30;49.10
77969;DHT22;67161;0.000;0.000;2023-02-03T16:47:27;16.20;49.10
77969;DHT22;67161;0.000;0.000;2023-02-03T16:50:14;16.30;49.40
77969;DHT22;67161;0.000;0.000;2023-02-03T16:52:59;16.20;49.40
77969;DHT22;67161;0.000;0.000;2023-02-03T16:55:24;16.20;49.40
77969;DHT22;67161;0.000;0.000;2023-02-03T16:57:50;16.10;49.40
77969;DHT22;67161;0.000;0.000;2023-02-03T17:00:17;16.10;49.40
77969;DHT22;67161;0.000;0.000;2023-02-03T17:02:45;16.10;49.50
77969;DHT22;67161;0.000;0.000;2023-02-03T17:05:10;16.10;49.50
77969;DHT22;67161;0.000;0.000;2023-02-03T17:07:36;16.10;49.60
77969;DHT22;67161;0.000;0.000;2023-02-03T17:10:02;16.10;49.60
77969;DHT22;67161;0.000;0.000;2023-02-03T17:12:27;16.10;49.70
77969;DHT22;67161;0.000;0.000;2023-02-03T17:14:55;16.00;49.70
77969;DHT22;67161;0.000;0.000;2023-02-03T17:17:22;16.00;49.70
77969;DHT22;67161;0.000;0.000;2023-02-03T17:19:48;16.00;49.70
77969;DHT22;67161;0.000;0.000;2023-02-03T17:22:13;16.00;49.70
77969;DHT22;67161;0.000;0.000;2023-02-03T17:24:39;16.00;49.70
77969;DHT22;67161;0.000;0.000;2023-02-03T17:27:05;16.00;49.70
77969;DHT22;67161;0.000;0.000;2023-02-03T17:29:30;16.00;49.80
77969;DHT22;67161;0.000;0.000;2023-02-03T17:31:56;16.00;49.80
77969;DHT22;67161;0.000;0.000;2023-02-03T17:34:22;15.90;49.80
77969;DHT22;67161;0.000;0.000;2023-02-03T17:36:47;15.90;49.80
77969;DHT22;67161;0.000;0.000;2023-02-03T17:39:13;15.90;49.80
77969;DHT22;67161;0.000;0.000;2023-02-03T17:41:38;15.90;49.80
77969;DHT22;67161;0.000;0.000;2023-02-03T17:44:04;15.90;49.80
77969;DHT22;67161;0.000;0.000;2023-02-03T17:46:30;15.90;49.80
77969;DHT22;67161;0.000;0.000;2023-02-03T17:48:55;15.90;49.90
77969;DHT22;67161;0.000;0.000;2023-02-03T17:51:23;15.90;49.90
77969;DHT22;67161;0.000;0.000;2023-02-03T17:53:50;15.90;49.90
77969;DHT22;67161;0.000;0.000;2023-02-03T17:56:21;15.90;49.90
77969;DHT22;67161;0.000;0.000;2023-02-03T17:58:56;15.90;50.00
77969;DHT22;67161;0.000;0.000;2023-02-03T18:01:21;15.90;49.90
77969;DHT22;67161;0.000;0.000;2023-02-03T18:03:52;15.90;49.90
77969;DHT22;67161;0.000;0.000;2023-02-03T18:06:20;15.90;50.80
77969;DHT22;67161;0.000;0.000;2023-02-03T18:08:46;15.80;49.90
77969;DHT22;67161;0.000;0.000;2023-02-03T18:11:13;15.80;49.90